Prinsendam — PBGH — position and weather

sailwx.info

Track history (hours):
 
Tides and Currents Weather Stations Pressure Air Temp Water Temp Dewpoint Dewpoint Depression Visibility Wind Speed Wind Dir Waves Ship Positions

Prinsendam

Operator: Holland America Line

Last reported at 2018-May-24 12:00 UTC. Time now 2018-May-24 13:53 UTC.
Position N 52°36' W 010°48'.

Type: Ship. MMSI: 244126000.

Wind from 330 at 6 knots

Barometer 1021.9 mb
Air temperature 16.0 ° C
Visibility: greater than 10.8 NM
Dewpoint 14.3 ° C
Water temperature 13.0 ° C

Date/timePositionNaut miles runAvg speedWind from/ knotsBaromVisibWave heightAir tempDewpointWater temp
2018-May-24 12:00N 52°36' W 010°48'12 6.0 330 / 61021.910.8 16.014.313.0
2018-May-24 10:00N 52°24' W 010°48'1212.1 320 / 111022.010.8 17.015.312.0
2018-May-24 08:59N 52°12' W 010°53'6 9.8
2018-May-24 08:24N 52°07' W 010°54'7 9.5
2018-May-24 07:42N 51°60' W 010°54'2 9.3
2018-May-24 07:26N 51°58' W 010°53'4 9.7
2018-May-24 06:59N 51°54' W 010°49'5 9.8
2018-May-24 06:28N 51°49' W 010°45'4 9.5
2018-May-24 06:00N 51°45' W 010°42'6 9.7
2018-May-24 05:21N 51°40' W 010°37'921.9
2018-May-24 04:57N 51°32' W 010°31'2 4.3
2018-May-24 04:29N 51°31' W 010°28'3 5.7
2018-May-24 04:00N 51°30' W 010°24'41039.8 030 / 51020.8 5.4 12.011.012.1
2018-May-24 03:59N 51°29' W 010°17'0 0.1
2018-May-24 03:28N 51°29' W 010°17'918.9
2018-May-24 02:59N 51°25' W 010°04'3 4.7
2018-May-24 02:21N 51°25' W 009°59'617.0
2018-May-24 01:59N 51°23' W 009°49'2 4.6
2018-May-24 01:30N 51°22' W 009°46'612.6
2018-May-24 00:59N 51°20' W 009°36'2 4.7
2018-May-24 00:30N 51°21' W 009°33'3 4.9
2018-May-23 23:58N 51°21' W 009°29'4 8.7
2018-May-23 23:30N 51°22' W 009°22'4 8.6
2018-May-23 23:00N 51°23' W 009°16'4 8.7
2018-May-23 22:30N 51°24' W 009°09'4 8.9
2018-May-23 22:00N 51°25' W 009°02'4 8.8
2018-May-23 21:30N 51°26' W 008°55'4 8.9
2018-May-23 21:00N 51°27' W 008°48'3172.1
2018-May-23 21:00N 51°24' W 008°48'611.9 060 / 81022.4 5.4 14.013.113.2
2018-May-23 20:30N 51°28' W 008°41'5 9.2
2018-May-23 20:00N 51°29' W 008°34'4 8.7
2018-May-23 19:30N 51°31' W 008°28'5 9.5
2018-May-23 19:00N 51°35' W 008°23'5 9.7
2018-May-23 18:30N 51°38' W 008°18'511.0
2018-May-23 18:00N 51°44' W 008°15'511.0
2018-May-23 17:30N 51°49' W 008°16'2 4.1
2018-May-23 16:59N 51°51' W 008°18'0 0.0
2018-May-23 16:29N 51°51' W 008°18'0 0.0
2018-May-23 15:59N 51°51' W 008°18'0 0.0
2018-May-23 15:29N 51°51' W 008°18'0 0.0
2018-May-23 14:59N 51°51' W 008°18'0 0.0
2018-May-23 14:29N 51°51' W 008°18'0 0.0
2018-May-23 13:59N 51°51' W 008°18'0 0.0
2018-May-23 13:29N 51°51' W 008°18'0 0.0
2018-May-23 12:59N 51°51' W 008°18'0 0.0
2018-May-23 12:29N 51°51' W 008°18'0 0.0
2018-May-23 11:50N 51°51' W 008°18'0 0.0
2018-May-23 11:29N 51°51' W 008°18'0 0.0
2018-May-23 10:56N 51°51' W 008°18'0 0.0
2018-May-23 10:29N 51°51' W 008°18'3 5.9
2018-May-23 10:00N 51°48' W 008°18'3314.8 030 / 141023.010.8 16.015.112.9
2018-May-23 09:59N 51°51' W 008°18'0 0.0
2018-May-23 09:29N 51°51' W 008°18'0 0.0
2018-May-23 08:59N 51°51' W 008°18'0 0.0
2018-May-23 08:29N 51°51' W 008°18'0 0.0
2018-May-23 07:59N 51°51' W 008°18'0 0.0
2018-May-23 07:29N 51°51' W 008°18'0 0.0
2018-May-23 06:59N 51°51' W 008°18'0 0.0
2018-May-23 06:30N 51°51' W 008°18'1 2.2
2018-May-23 06:01N 51°51' W 008°16'611.7
2018-May-23 05:31N 51°45' W 008°15'4 8.5
2018-May-23 05:00N 51°41' W 008°12'5 9.9
2018-May-23 04:31N 51°38' W 008°06'510.7
2018-May-23 04:00N 51°34' W 008°00'611.4
2018-May-23 03:31N 51°30' W 007°54'610.9
2018-May-23 03:00N 51°25' W 007°48'510.4
2018-May-23 02:30N 51°21' W 007°44'510.4
2018-May-23 02:01N 51°17' W 007°39'5319.1
2018-May-23 02:00N 51°12' W 007°36'1 1.2 030 / 151021.310.8 11.011.012.5
2018-May-23 01:26N 51°11' W 007°36'510.5
2018-May-23 01:00N 51°07' W 007°33'610.8
2018-May-23 00:27N 51°02' W 007°28'610.9
2018-May-22 23:55N 50°57' W 007°23'3010.8
2018-May-22 21:09N 50°32' W 006°59'810.5
2018-May-22 20:23N 50°25' W 006°52'410.5
2018-May-22 19:57N 50°21' W 006°49'610.5
2018-May-22 19:25N 50°16' W 006°44'410.5
2018-May-22 18:59N 50°12' W 006°40'510.4
2018-May-22 18:30N 50°08' W 006°37'510.5
2018-May-22 18:01N 50°03' W 006°33'611.1
2018-May-22 17:30N 49°58' W 006°29'5 9.6
2018-May-22 17:00N 49°55' W 006°24'2 1.5
2018-May-22 15:26N 49°55' W 006°20'0 0.0
2018-May-22 14:56N 49°55' W 006°20'0 0.0
2018-May-22 14:02N 49°55' W 006°20'0 0.1
2018-May-22 13:59N 49°55' W 006°20'0 0.0
2018-May-22 13:29N 49°55' W 006°20'0 0.0
2018-May-22 12:59N 49°55' W 006°20'0 0.0
2018-May-22 10:20N 49°55' W 006°20'20 2.4
2018-May-22 02:12N 49°45' W 005°55'211.3
2018-May-22 02:00N 49°45' W 005°51'611.2
2018-May-22 01:30N 49°46' W 005°43'611.2
2018-May-22 00:59N 49°49' W 005°35'510.9
2018-May-22 00:30N 49°49' W 005°27'610.9
2018-May-22 00:00N 49°49' W 005°18'1195.1
2018-May-22 00:00N 49°48' W 005°18'611.4 350 / 201014.910.8 14.012.214.0
2018-May-21 23:30N 49°50' W 005°10'510.6
2018-May-21 23:00N 49°52' W 005°03'610.3
2018-May-21 22:26N 49°54' W 004°54'1110.8
2018-May-21 21:27N 50°04' W 004°47'510.9
2018-May-21 21:00N 50°08' W 004°44'2161.9
2018-May-21 21:00N 50°06' W 004°42'714.3 360 / 201014.810.8 17.014.413.5
2018-May-21 20:30N 50°13' W 004°41'4 7.3
2018-May-21 20:00N 50°16' W 004°40'2 0.1
2018-May-21 06:36N 50°18' W 004°39'2 7.4
2018-May-21 06:18N 50°16' W 004°38'3 9.2
2018-May-21 06:00N 50°13' W 004°38'4 8.5
2018-May-21 05:30N 50°09' W 004°38'4 8.6
2018-May-21 05:00N 50°05' W 004°38'4 8.6
2018-May-21 04:30N 50°00' W 004°37'4 8.4
2018-May-21 04:00N 49°56' W 004°37'4 8.4
2018-May-21 03:30N 49°52' W 004°37'4 8.2
2018-May-21 03:00N 49°48' W 004°38'3 6.3
2018-May-21 02:30N 49°45' W 004°35'5 9.5
2018-May-21 02:00N 49°46' W 004°27'4277.9
2018-May-21 02:00N 49°42' W 004°24'4 8.6 060 / 121015.6 11.011.011.4
2018-May-21 01:31N 49°42' W 004°18'815.7
2018-May-21 01:00N 49°38' W 004°07'815.6
2018-May-21 00:30N 49°35' W 003°57'815.4
2018-May-21 00:00N 49°31' W 003°46'714.1
2018-May-20 23:31N 49°27' W 003°38'4 8.9
2018-May-20 23:00N 49°27' W 003°31'4 7.2
2018-May-20 22:30N 49°28' W 003°25'4 7.5
2018-May-20 22:00N 49°26' W 003°20'2175.0
2018-May-20 22:00N 49°24' W 003°18'2 4.5 060 / 161016.0 2.2 10.0 9.011.0
2018-May-20 21:30N 49°25' W 003°15'3 6.7
2018-May-20 21:00N 49°25' W 003°10'3 6.9
2018-May-20 20:31N 49°24' W 003°05'3 6.9
2018-May-20 20:00N 49°24' W 002°60'3 6.9
2018-May-20 19:30N 49°23' W 002°54'3 6.9
2018-May-20 19:01N 49°22' W 002°49'3 6.3
2018-May-20 18:31N 49°22' W 002°44'4 7.1
2018-May-20 18:00N 49°22' W 002°39'611.2
2018-May-20 17:31N 49°24' W 002°31'4 7.8
2018-May-20 17:00N 49°28' W 002°30'0 0.0
2018-May-20 16:30N 49°28' W 002°30'0 0.0
2018-May-20 15:42N 49°28' W 002°30'0 0.2
2018-May-20 15:30N 49°28' W 002°30'0 0.2
2018-May-20 15:00N 49°28' W 002°30'0 0.0
2018-May-20 14:30N 49°28' W 002°30'0 0.1
2018-May-20 13:57N 49°28' W 002°30'0 0.0
2018-May-20 13:30N 49°28' W 002°30'0 0.1
2018-May-20 13:00N 49°28' W 002°30'0 0.0
2018-May-20 12:30N 49°28' W 002°30'0 0.1
2018-May-20 11:54N 49°28' W 002°30'0 0.0
2018-May-20 11:30N 49°28' W 002°30'0 0.0
2018-May-20 11:00N 49°28' W 002°30'0 0.0
2018-May-20 10:30N 49°28' W 002°30'0 0.0
2018-May-20 10:00N 49°28' W 002°30'0 0.0
2018-May-20 09:30N 49°28' W 002°30'0 0.0
2018-May-20 09:00N 49°28' W 002°30'0 0.0
2018-May-20 08:30N 49°28' W 002°30'0 0.0
2018-May-20 07:54N 49°28' W 002°30'0 0.1
2018-May-20 07:30N 49°28' W 002°30'0 0.1
2018-May-20 07:00N 49°28' W 002°30'0 0.0
2018-May-20 06:30N 49°28' W 002°30'0 0.9
2018-May-20 06:00N 49°27' W 002°30'4 8.7
2018-May-20 05:30N 49°23' W 002°33'814.3
2018-May-20 04:58N 49°24' W 002°44'816.6
2018-May-20 04:30N 49°31' W 002°51'916.9
2018-May-20 04:00N 49°39' W 002°55'816.3
2018-May-20 03:30N 49°47' W 002°58'816.2
2018-May-20 03:00N 49°55' W 002°58'714.1
2018-May-20 02:30N 49°60' W 002°51'917.8
2018-May-20 02:00N 50°02' W 002°37'918.0
2018-May-20 01:31N 50°05' W 002°24'917.1
2018-May-20 01:00N 50°07' W 002°11'816.2
2018-May-20 00:30N 50°09' W 001°59'815.4
2018-May-20 00:00N 50°11' W 001°47'715.0
2018-May-19 23:30N 50°13' W 001°36'714.9
2018-May-19 23:01N 50°15' W 001°25'814.8
2018-May-19 22:30N 50°18' W 001°14'715.0
2018-May-19 22:01N 50°19' W 001°02'3159.1
2018-May-19 22:00N 50°18' W 001°06'1121.9 360 / 51022.0 5.4 11.010.011.0
2018-May-19 21:30N 50°21' W 000°50'816.9
2018-May-19 21:00N 50°23' W 000°37'917.8
2018-May-19 20:30N 50°26' W 000°24'918.7
2018-May-19 20:00N 50°28' W 000°10'1019.3
2018-May-19 19:31N 50°31' E 000°05'1019.6
2018-May-19 19:00N 50°34' E 000°20'1019.6
2018-May-19 18:30N 50°36' E 000°34'1019.1
2018-May-19 18:01N 50°41' E 000°47'918.5
2018-May-19 17:30N 50°47' E 000°59'917.7
2018-May-19 17:00N 50°53' E 001°08'1016.6
2018-May-19 16:23N 51°01' E 001°20'512.9
2018-May-19 16:00N 51°06' E 001°21'1 0.1
2018-May-19 04:53N 51°07' E 001°20'3 7.2
2018-May-19 04:30N 51°07' E 001°24'4 8.5
2018-May-19 04:00N 51°05' E 001°30'4 8.9
2018-May-19 03:30N 51°01' E 001°33'510.1
2018-May-19 03:00N 50°57' E 001°28'610.6
2018-May-19 02:25N 50°51' E 001°24'511.0
2018-May-19 01:58N 50°47' E 001°22'612.1
2018-May-19 01:30N 50°41' E 001°19'612.2
2018-May-19 01:00N 50°37' E 001°13'911.9
2018-May-19 00:17N 50°31' E 001°03'930.2
2018-May-19 00:00N 50°24' E 000°54'5134.4 040 / 81022.4 5.4 11.010.011.1
2018-May-18 23:57N 50°29' E 000°57'512.1
2018-May-18 23:30N 50°27' E 000°49'612.3
2018-May-18 23:00N 50°25' E 000°40'2157.9
2018-May-18 23:00N 50°24' E 000°42'1013.9 050 / 101022.5 5.4 11.010.011.1
2018-May-18 22:16N 50°22' E 000°27'312.3
2018-May-18 22:00N 50°21' E 000°22'612.3
2018-May-18 21:29N 50°19' E 000°12'613.3
2018-May-18 21:00N 50°18' E 000°02'613.0
2018-May-18 20:30N 50°16' W 000°08'612.9
2018-May-18 20:00N 50°15' W 000°17'4334.2
2018-May-18 20:00N 50°12' W 000°12'1020.8 010 / 91023.4 5.4 11.310.711.0
2018-May-18 19:31N 50°13' W 000°28'714.2
2018-May-18 19:01N 50°11' W 000°38'815.9
2018-May-18 18:31N 50°09' W 000°50'816.2
2018-May-18 18:01N 50°06' W 001°02'815.7
2018-May-18 17:30N 50°02' W 001°12'815.1
2018-May-18 17:01N 49°58' W 001°22'714.6
2018-May-18 16:30N 49°53' W 001°31'714.3
2018-May-18 16:00N 49°48' W 001°39'714.0
2018-May-18 15:31N 49°41' W 001°40'3 5.8
2018-May-18 15:00N 49°39' W 001°37'0 0.0
2018-May-18 14:30N 49°39' W 001°37'0 0.0
2018-May-18 14:00N 49°39' W 001°37'0 0.0
2018-May-18 13:30N 49°39' W 001°37'0 0.0
2018-May-18 13:00N 49°39' W 001°37'0 0.0
2018-May-18 12:30N 49°39' W 001°37'0 0.0
2018-May-18 12:00N 49°39' W 001°37'0 0.0
2018-May-18 11:30N 49°39' W 001°37'0 0.0
2018-May-18 11:00N 49°39' W 001°37'0 0.0
2018-May-18 10:30N 49°39' W 001°37'0 0.0
2018-May-18 10:00N 49°39' W 001°37'0 0.0
2018-May-18 09:30N 49°39' W 001°37'0 0.0
2018-May-18 09:00N 49°39' W 001°37'0 0.0
2018-May-18 08:30N 49°39' W 001°37'0 0.0
2018-May-18 08:00N 49°39' W 001°37'0 0.0
2018-May-18 07:30N 49°39' W 001°37'0 0.0
2018-May-18 07:00N 49°39' W 001°37'0 0.0
2018-May-18 06:30N 49°39' W 001°37'0 0.0
2018-May-18 06:00N 49°39' W 001°37'0 0.0
2018-May-18 05:30N 49°39' W 001°37'0 0.0
2018-May-18 05:00N 49°39' W 001°37'2 3.8
2018-May-18 04:30N 49°40' W 001°39'510.5
2018-May-18 04:00N 49°44' W 001°45'612.2
2018-May-18 03:30N 49°47' W 001°52'713.0
2018-May-18 03:00N 49°50' W 002°02'713.6
2018-May-18 02:30N 49°52' W 002°12'813.8
2018-May-18 01:55N 49°53' W 002°24'615.2
2018-May-18 01:30N 49°51' W 002°33'815.9
2018-May-18 01:00N 49°50' W 002°45'3162.7
2018-May-18 01:00N 49°48' W 002°42'919.6 080 / 151023.9 5.4 11.010.011.1
2018-May-18 00:31N 49°46' W 002°56'816.4
2018-May-18 00:00N 49°42' W 003°07'5288.7
2018-May-18 00:00N 49°42' W 003°00'1326.4 060 / 121023.9 5.4 11.010.011.1
2018-May-17 23:31N 49°37' W 003°18'917.1
2018-May-17 23:00N 49°32' W 003°29'4288.4
2018-May-17 23:00N 49°30' W 003°24'1121.8 070 / 151023.6 5.4 11.010.011.1
2018-May-17 22:30N 49°27' W 003°40'917.2
2018-May-17 22:00N 49°22' W 003°50'917.3
2018-May-17 21:30N 49°17' W 004°01'917.4
2018-May-17 21:00N 49°11' W 004°11'8458.5
2018-May-17 21:00N 49°12' W 004°00'1632.2 060 / 171023.010.8 10.5 9.511.5
2018-May-17 20:30N 49°06' W 004°22'917.8
2018-May-17 19:59N 48°60' W 004°33'918.0
2018-May-17 19:30N 48°54' W 004°43'918.1
2018-May-17 19:00N 48°49' W 004°53'918.3
2018-May-17 18:30N 48°44' W 005°05'918.5
2018-May-17 18:00N 48°37' W 005°15'918.8
2018-May-17 17:30N 48°30' W 005°24'918.1
2018-May-17 17:00N 48°23' W 005°15'919.0
2018-May-17 16:30N 48°18' W 005°02'917.5
2018-May-17 16:00N 48°16' W 004°50'917.2
2018-May-17 15:30N 48°19' W 004°38'611.7
2018-May-17 15:00N 48°22' W 004°30'2 4.0
2018-May-17 14:30N 48°23' W 004°27'0 0.0
2018-May-17 14:00N 48°23' W 004°27'0 0.0
2018-May-17 13:30N 48°23' W 004°27'0 0.0
2018-May-17 13:00N 48°23' W 004°27'0 0.0
2018-May-17 12:30N 48°23' W 004°27'0 0.0
2018-May-17 12:00N 48°23' W 004°27'0 0.0
2018-May-17 11:30N 48°23' W 004°27'0 0.0
2018-May-17 11:00N 48°23' W 004°27'0 0.0
2018-May-17 10:30N 48°23' W 004°27'0 0.0
2018-May-17 10:00N 48°23' W 004°27'0 0.0
2018-May-17 09:30N 48°23' W 004°27'0 0.0
2018-May-17 09:00N 48°23' W 004°27'0 0.0
2018-May-17 08:30N 48°23' W 004°27'0 0.0
2018-May-17 08:00N 48°23' W 004°27'0 0.0
2018-May-17 07:30N 48°23' W 004°27'0 0.0
2018-May-17 07:00N 48°23' W 004°27'0 0.0
2018-May-17 06:30N 48°23' W 004°27'0 0.0
2018-May-17 06:00N 48°23' W 004°27'0 0.8
2018-May-17 05:31N 48°23' W 004°28'4 8.7
2018-May-17 05:00N 48°21' W 004°33'611.3
2018-May-17 04:30N 48°18' W 004°41'510.1
2018-May-17 04:00N 48°16' W 004°48'612.3
2018-May-17 03:30N 48°14' W 004°56'713.8
2018-May-17 03:00N 48°11' W 005°06'714.5
2018-May-17 02:30N 48°09' W 005°16'3714.7
2018-May-16 23:58N 47°50' W 006°05'6212.5
2018-May-16 19:00N 47°18' W 007°24'5814.4 010 / 271021.4 2.2 13.013.012.9
2018-May-16 15:00N 46°48' W 008°36'2713.7 020 / 311022.2 2.2 14.013.113.0
2018-May-16 13:00N 46°36' W 009°12'1010.2 020 / 311023.3 5.4 14.013.113.0
2018-May-16 12:00N 46°30' W 009°24'11414.2 020 / 301023.6 5.4 14.013.113.0
2018-May-16 04:00N 45°36' W 011°48'10513.1 010 / 341024.1 2.2 12.012.013.0
2018-May-15 20:00N 44°48' W 014°00'4515.1 360 / 201026.2 5.4 15.515.514.5
2018-May-15 17:00N 44°24' W 014°54'4314.2 350 / 121026.4 1.1 14.514.514.6
2018-May-15 14:00N 44°06' W 015°48'1414.3 320 / 101027.2 5.4 18.017.214.0
2018-May-15 13:00N 44°00' W 016°06'1414.3 320 / 131027.7 5.4 18.017.214.0
2018-May-15 12:00N 43°54' W 016°24'12115.1 310 / 151028.2 5.4 18.017.214.0
2018-May-15 04:00N 42°54' W 018°48'12215.3 300 / 101028.210.8 14.014.014.6
2018-May-14 20:00N 41°54' W 021°12'4414.7 230 / 61029.910.8 16.015.115.5
2018-May-14 17:00N 41°36' W 022°06'1110.8 200 / 91029.910.8 17.014.416.0
2018-May-14 16:00N 41°30' W 022°18'2625.5 200 / 91029.910.8 17.014.416.0
2018-May-14 15:00N 41°18' W 022°48'1110.8 200 / 91029.910.8 18.014.616.0
2018-May-14 14:00N 41°12' W 023°00'   210 / 81029.910.8 18.013.616.0
Track history (hours):
 
Tides and Currents Weather Stations Pressure Air Temp Water Temp Dewpoint Dewpoint Depression Visibility Wind Speed Wind Dir Waves Ship Positions

Prinsendam

Operator: Holland America Line

Last reported at 2018-May-24 12:00 UTC. Time now 2018-May-24 13:53 UTC.
Position N 52°36' W 010°48'.

Type: Ship. MMSI: 244126000.

Wind from 330 at 6 knots

Barometer 1021.9 mb
Air temperature 16.0 ° C
Visibility: greater than 10.8 NM
Dewpoint 14.3 ° C
Water temperature 13.0 ° C

Date/timePositionNaut miles runAvg speedWind from/ knotsBaromVisibWave heightAir tempDewpointWater temp
2018-May-24 12:00N 52°36' W 010°48'12 6.0 330 / 61021.910.8 16.014.313.0
2018-May-24 10:00N 52°24' W 010°48'1212.1 320 / 111022.010.8 17.015.312.0
2018-May-24 08:59N 52°12' W 010°53'6 9.8
2018-May-24 08:24N 52°07' W 010°54'7 9.5
2018-May-24 07:42N 51°60' W 010°54'2 9.3
2018-May-24 07:26N 51°58' W 010°53'4 9.7
2018-May-24 06:59N 51°54' W 010°49'5 9.8
2018-May-24 06:28N 51°49' W 010°45'4 9.5
2018-May-24 06:00N 51°45' W 010°42'6 9.7
2018-May-24 05:21N 51°40' W 010°37'921.9
2018-May-24 04:57N 51°32' W 010°31'2 4.3
2018-May-24 04:29N 51°31' W 010°28'3 5.7
2018-May-24 04:00N 51°30' W 010°24'41039.8 030 / 51020.8 5.4 12.011.012.1
2018-May-24 03:59N 51°29' W 010°17'0 0.1
2018-May-24 03:28N 51°29' W 010°17'918.9
2018-May-24 02:59N 51°25' W 010°04'3 4.7
2018-May-24 02:21N 51°25' W 009°59'617.0
2018-May-24 01:59N 51°23' W 009°49'2 4.6
2018-May-24 01:30N 51°22' W 009°46'612.6
2018-May-24 00:59N 51°20' W 009°36'2 4.7
2018-May-24 00:30N 51°21' W 009°33'3 4.9
2018-May-23 23:58N 51°21' W 009°29'4 8.7
2018-May-23 23:30N 51°22' W 009°22'4 8.6
2018-May-23 23:00N 51°23' W 009°16'4 8.7
2018-May-23 22:30N 51°24' W 009°09'4 8.9
2018-May-23 22:00N 51°25' W 009°02'4 8.8
2018-May-23 21:30N 51°26' W 008°55'4 8.9
2018-May-23 21:00N 51°27' W 008°48'3172.1
2018-May-23 21:00N 51°24' W 008°48'611.9 060 / 81022.4 5.4 14.013.113.2
2018-May-23 20:30N 51°28' W 008°41'5 9.2
2018-May-23 20:00N 51°29' W 008°34'4 8.7
2018-May-23 19:30N 51°31' W 008°28'5 9.5
2018-May-23 19:00N 51°35' W 008°23'5 9.7
2018-May-23 18:30N 51°38' W 008°18'511.0
2018-May-23 18:00N 51°44' W 008°15'511.0
2018-May-23 17:30N 51°49' W 008°16'2 4.1
2018-May-23 16:59N 51°51' W 008°18'0 0.0
2018-May-23 16:29N 51°51' W 008°18'0 0.0
2018-May-23 15:59N 51°51' W 008°18'0 0.0
2018-May-23 15:29N 51°51' W 008°18'0 0.0
2018-May-23 14:59N 51°51' W 008°18'0 0.0
2018-May-23 14:29N 51°51' W 008°18'0 0.0
2018-May-23 13:59N 51°51' W 008°18'0 0.0
2018-May-23 13:29N 51°51' W 008°18'0 0.0
2018-May-23 12:59N 51°51' W 008°18'0 0.0
2018-May-23 12:29N 51°51' W 008°18'0 0.0
2018-May-23 11:50N 51°51' W 008°18'0 0.0
2018-May-23 11:29N 51°51' W 008°18'0 0.0
2018-May-23 10:56N 51°51' W 008°18'0 0.0
2018-May-23 10:29N 51°51' W 008°18'3 5.9
2018-May-23 10:00N 51°48' W 008°18'3314.8 030 / 141023.010.8 16.015.112.9
2018-May-23 09:59N 51°51' W 008°18'0 0.0
2018-May-23 09:29N 51°51' W 008°18'0 0.0
2018-May-23 08:59N 51°51' W 008°18'0 0.0
2018-May-23 08:29N 51°51' W 008°18'0 0.0
2018-May-23 07:59N 51°51' W 008°18'0 0.0
2018-May-23 07:29N 51°51' W 008°18'0 0.0
2018-May-23 06:59N 51°51' W 008°18'0 0.0
2018-May-23 06:30N 51°51' W 008°18'1 2.2
2018-May-23 06:01N 51°51' W 008°16'611.7
2018-May-23 05:31N 51°45' W 008°15'4 8.5
2018-May-23 05:00N 51°41' W 008°12'5 9.9
2018-May-23 04:31N 51°38' W 008°06'510.7
2018-May-23 04:00N 51°34' W 008°00'611.4
2018-May-23 03:31N 51°30' W 007°54'610.9
2018-May-23 03:00N 51°25' W 007°48'510.4
2018-May-23 02:30N 51°21' W 007°44'510.4
2018-May-23 02:01N 51°17' W 007°39'5319.1
2018-May-23 02:00N 51°12' W 007°36'1 1.2 030 / 151021.310.8 11.011.012.5
2018-May-23 01:26N 51°11' W 007°36'510.5
2018-May-23 01:00N 51°07' W 007°33'610.8
2018-May-23 00:27N 51°02' W 007°28'610.9
2018-May-22 23:55N 50°57' W 007°23'3010.8
2018-May-22 21:09N 50°32' W 006°59'810.5
2018-May-22 20:23N 50°25' W 006°52'410.5
2018-May-22 19:57N 50°21' W 006°49'610.5
2018-May-22 19:25N 50°16' W 006°44'410.5
2018-May-22 18:59N 50°12' W 006°40'510.4
2018-May-22 18:30N 50°08' W 006°37'510.5
2018-May-22 18:01N 50°03' W 006°33'611.1
2018-May-22 17:30N 49°58' W 006°29'5 9.6
2018-May-22 17:00N 49°55' W 006°24'2 1.5
2018-May-22 15:26N 49°55' W 006°20'0 0.0
2018-May-22 14:56N 49°55' W 006°20'0 0.0
2018-May-22 14:02N 49°55' W 006°20'0 0.1
2018-May-22 13:59N 49°55' W 006°20'0 0.0
2018-May-22 13:29N 49°55' W 006°20'0 0.0
2018-May-22 12:59N 49°55' W 006°20'0 0.0
2018-May-22 10:20N 49°55' W 006°20'20 2.4
2018-May-22 02:12N 49°45' W 005°55'211.3
2018-May-22 02:00N 49°45' W 005°51'611.2
2018-May-22 01:30N 49°46' W 005°43'611.2
2018-May-22 00:59N 49°49' W 005°35'510.9
2018-May-22 00:30N 49°49' W 005°27'610.9
2018-May-22 00:00N 49°49' W 005°18'1195.1
2018-May-22 00:00N 49°48' W 005°18'611.4 350 / 201014.910.8 14.012.214.0
2018-May-21 23:30N 49°50' W 005°10'510.6
2018-May-21 23:00N 49°52' W 005°03'610.3
2018-May-21 22:26N 49°54' W 004°54'1110.8
2018-May-21 21:27N 50°04' W 004°47'510.9
2018-May-21 21:00N 50°08' W 004°44'2161.9
2018-May-21 21:00N 50°06' W 004°42'714.3 360 / 201014.810.8 17.014.413.5
2018-May-21 20:30N 50°13' W 004°41'4 7.3
2018-May-21 20:00N 50°16' W 004°40'2 0.1
2018-May-21 06:36N 50°18' W 004°39'2 7.4
2018-May-21 06:18N 50°16' W 004°38'3 9.2
2018-May-21 06:00N 50°13' W 004°38'4 8.5
2018-May-21 05:30N 50°09' W 004°38'4 8.6
2018-May-21 05:00N 50°05' W 004°38'4 8.6
2018-May-21 04:30N 50°00' W 004°37'4 8.4
2018-May-21 04:00N 49°56' W 004°37'4 8.4
2018-May-21 03:30N 49°52' W 004°37'4 8.2
2018-May-21 03:00N 49°48' W 004°38'3 6.3
2018-May-21 02:30N 49°45' W 004°35'5 9.5
2018-May-21 02:00N 49°46' W 004°27'4277.9
2018-May-21 02:00N 49°42' W 004°24'4 8.6 060 / 121015.6 11.011.011.4
2018-May-21 01:31N 49°42' W 004°18'815.7
2018-May-21 01:00N 49°38' W 004°07'815.6
2018-May-21 00:30N 49°35' W 003°57'815.4
2018-May-21 00:00N 49°31' W 003°46'714.1
2018-May-20 23:31N 49°27' W 003°38'4 8.9
2018-May-20 23:00N 49°27' W 003°31'4 7.2
2018-May-20 22:30N 49°28' W 003°25'4 7.5
2018-May-20 22:00N 49°26' W 003°20'2175.0
2018-May-20 22:00N 49°24' W 003°18'2 4.5 060 / 161016.0 2.2 10.0 9.011.0
2018-May-20 21:30N 49°25' W 003°15'3 6.7
2018-May-20 21:00N 49°25' W 003°10'3 6.9
2018-May-20 20:31N 49°24' W 003°05'3 6.9
2018-May-20 20:00N 49°24' W 002°60'3 6.9
2018-May-20 19:30N 49°23' W 002°54'3 6.9
2018-May-20 19:01N 49°22' W 002°49'3 6.3
2018-May-20 18:31N 49°22' W 002°44'4 7.1
2018-May-20 18:00N 49°22' W 002°39'611.2
2018-May-20 17:31N 49°24' W 002°31'4 7.8
2018-May-20 17:00N 49°28' W 002°30'0 0.0
2018-May-20 16:30N 49°28' W 002°30'0 0.0
2018-May-20 15:42N 49°28' W 002°30'0 0.2
2018-May-20 15:30N 49°28' W 002°30'0 0.2
2018-May-20 15:00N 49°28' W 002°30'0 0.0
2018-May-20 14:30N 49°28' W 002°30'0 0.1
2018-May-20 13:57N 49°28' W 002°30'0 0.0
2018-May-20 13:30N 49°28' W 002°30'0 0.1
2018-May-20 13:00N 49°28' W 002°30'0 0.0
2018-May-20 12:30N 49°28' W 002°30'0 0.1
2018-May-20 11:54N 49°28' W 002°30'0 0.0
2018-May-20 11:30N 49°28' W 002°30'0 0.0
2018-May-20 11:00N 49°28' W 002°30'0 0.0
2018-May-20 10:30N 49°28' W 002°30'0 0.0
2018-May-20 10:00N 49°28' W 002°30'0 0.0
2018-May-20 09:30N 49°28' W 002°30'0 0.0
2018-May-20 09:00N 49°28' W 002°30'0 0.0
2018-May-20 08:30N 49°28' W 002°30'0 0.0
2018-May-20 07:54N 49°28' W 002°30'0 0.1
2018-May-20 07:30N 49°28' W 002°30'0 0.1
2018-May-20 07:00N 49°28' W 002°30'0 0.0
2018-May-20 06:30N 49°28' W 002°30'0 0.9
2018-May-20 06:00N 49°27' W 002°30'4 8.7
2018-May-20 05:30N 49°23' W 002°33'814.3
2018-May-20 04:58N 49°24' W 002°44'816.6
2018-May-20 04:30N 49°31' W 002°51'916.9
2018-May-20 04:00N 49°39' W 002°55'816.3
2018-May-20 03:30N 49°47' W 002°58'816.2
2018-May-20 03:00N 49°55' W 002°58'714.1
2018-May-20 02:30N 49°60' W 002°51'917.8
2018-May-20 02:00N 50°02' W 002°37'918.0
2018-May-20 01:31N 50°05' W 002°24'917.1
2018-May-20 01:00N 50°07' W 002°11'816.2
2018-May-20 00:30N 50°09' W 001°59'815.4
2018-May-20 00:00N 50°11' W 001°47'715.0
2018-May-19 23:30N 50°13' W 001°36'714.9
2018-May-19 23:01N 50°15' W 001°25'814.8
2018-May-19 22:30N 50°18' W 001°14'715.0
2018-May-19 22:01N 50°19' W 001°02'3159.1
2018-May-19 22:00N 50°18' W 001°06'1121.9 360 / 51022.0 5.4 11.010.011.0
2018-May-19 21:30N 50°21' W 000°50'816.9
2018-May-19 21:00N 50°23' W 000°37'917.8
2018-May-19 20:30N 50°26' W 000°24'918.7
2018-May-19 20:00N 50°28' W 000°10'1019.3
2018-May-19 19:31N 50°31' E 000°05'1019.6
2018-May-19 19:00N 50°34' E 000°20'1019.6
2018-May-19 18:30N 50°36' E 000°34'1019.1
2018-May-19 18:01N 50°41' E 000°47'918.5
2018-May-19 17:30N 50°47' E 000°59'917.7
2018-May-19 17:00N 50°53' E 001°08'1016.6
2018-May-19 16:23N 51°01' E 001°20'512.9
2018-May-19 16:00N 51°06' E 001°21'1 0.1
2018-May-19 04:53N 51°07' E 001°20'3 7.2
2018-May-19 04:30N 51°07' E 001°24'4 8.5
2018-May-19 04:00N 51°05' E 001°30'4 8.9
2018-May-19 03:30N 51°01' E 001°33'510.1
2018-May-19 03:00N 50°57' E 001°28'610.6
2018-May-19 02:25N 50°51' E 001°24'511.0
2018-May-19 01:58N 50°47' E 001°22'612.1
2018-May-19 01:30N 50°41' E 001°19'612.2
2018-May-19 01:00N 50°37' E 001°13'911.9
2018-May-19 00:17N 50°31' E 001°03'930.2
2018-May-19 00:00N 50°24' E 000°54'5134.4 040 / 81022.4 5.4 11.010.011.1
2018-May-18 23:57N 50°29' E 000°57'512.1
2018-May-18 23:30N 50°27' E 000°49'612.3
2018-May-18 23:00N 50°25' E 000°40'2157.9
2018-May-18 23:00N 50°24' E 000°42'1013.9 050 / 101022.5 5.4 11.010.011.1
2018-May-18 22:16N 50°22' E 000°27'312.3
2018-May-18 22:00N 50°21' E 000°22'612.3
2018-May-18 21:29N 50°19' E 000°12'613.3
2018-May-18 21:00N 50°18' E 000°02'613.0
2018-May-18 20:30N 50°16' W 000°08'612.9
2018-May-18 20:00N 50°15' W 000°17'4334.2
2018-May-18 20:00N 50°12' W 000°12'1020.8 010 / 91023.4 5.4 11.310.711.0
2018-May-18 19:31N 50°13' W 000°28'714.2
2018-May-18 19:01N 50°11' W 000°38'815.9
2018-May-18 18:31N 50°09' W 000°50'816.2
2018-May-18 18:01N 50°06' W 001°02'815.7
2018-May-18 17:30N 50°02' W 001°12'815.1
2018-May-18 17:01N 49°58' W 001°22'714.6
2018-May-18 16:30N 49°53' W 001°31'714.3
2018-May-18 16:00N 49°48' W 001°39'714.0
2018-May-18 15:31N 49°41' W 001°40'3 5.8
2018-May-18 15:00N 49°39' W 001°37'0 0.0
2018-May-18 14:30N 49°39' W 001°37'0 0.0
2018-May-18 14:00N 49°39' W 001°37'0 0.0
2018-May-18 13:30N 49°39' W 001°37'0 0.0
2018-May-18 13:00N 49°39' W 001°37'0 0.0
2018-May-18 12:30N 49°39' W 001°37'0 0.0
2018-May-18 12:00N 49°39' W 001°37'0 0.0
2018-May-18 11:30N 49°39' W 001°37'0 0.0
2018-May-18 11:00N 49°39' W 001°37'0 0.0
2018-May-18 10:30N 49°39' W 001°37'0 0.0
2018-May-18 10:00N 49°39' W 001°37'0 0.0
2018-May-18 09:30N 49°39' W 001°37'0 0.0
2018-May-18 09:00N 49°39' W 001°37'0 0.0
2018-May-18 08:30N 49°39' W 001°37'0 0.0
2018-May-18 08:00N 49°39' W 001°37'0 0.0
2018-May-18 07:30N 49°39' W 001°37'0 0.0
2018-May-18 07:00N 49°39' W 001°37'0 0.0
2018-May-18 06:30N 49°39' W 001°37'0 0.0
2018-May-18 06:00N 49°39' W 001°37'0 0.0
2018-May-18 05:30N 49°39' W 001°37'0 0.0
2018-May-18 05:00N 49°39' W 001°37'2 3.8
2018-May-18 04:30N 49°40' W 001°39'510.5
2018-May-18 04:00N 49°44' W 001°45'612.2
2018-May-18 03:30N 49°47' W 001°52'713.0
2018-May-18 03:00N 49°50' W 002°02'713.6
2018-May-18 02:30N 49°52' W 002°12'813.8
2018-May-18 01:55N 49°53' W 002°24'615.2
2018-May-18 01:30N 49°51' W 002°33'815.9
2018-May-18 01:00N 49°50' W 002°45'3162.7
2018-May-18 01:00N 49°48' W 002°42'919.6 080 / 151023.9 5.4 11.010.011.1
2018-May-18 00:31N 49°46' W 002°56'816.4
2018-May-18 00:00N 49°42' W 003°07'5288.7
2018-May-18 00:00N 49°42' W 003°00'1326.4 060 / 121023.9 5.4 11.010.011.1
2018-May-17 23:31N 49°37' W 003°18'917.1
2018-May-17 23:00N 49°32' W 003°29'4288.4
2018-May-17 23:00N 49°30' W 003°24'1121.8 070 / 151023.6 5.4 11.010.011.1
2018-May-17 22:30N 49°27' W 003°40'917.2
2018-May-17 22:00N 49°22' W 003°50'917.3
2018-May-17 21:30N 49°17' W 004°01'917.4
2018-May-17 21:00N 49°11' W 004°11'8458.5
2018-May-17 21:00N 49°12' W 004°00'1632.2 060 / 171023.010.8 10.5 9.511.5
2018-May-17 20:30N 49°06' W 004°22'917.8
2018-May-17 19:59N 48°60' W 004°33'918.0
2018-May-17 19:30N 48°54' W 004°43'918.1
2018-May-17 19:00N 48°49' W 004°53'918.3
2018-May-17 18:30N 48°44' W 005°05'918.5
2018-May-17 18:00N 48°37' W 005°15'918.8
2018-May-17 17:30N 48°30' W 005°24'918.1
2018-May-17 17:00N 48°23' W 005°15'919.0
2018-May-17 16:30N 48°18' W 005°02'917.5
2018-May-17 16:00N 48°16' W 004°50'917.2
2018-May-17 15:30N 48°19' W 004°38'611.7
2018-May-17 15:00N 48°22' W 004°30'2 4.0
2018-May-17 14:30N 48°23' W 004°27'0 0.0
2018-May-17 14:00N 48°23' W 004°27'0 0.0
2018-May-17 13:30N 48°23' W 004°27'0 0.0
2018-May-17 13:00N 48°23' W 004°27'0 0.0
2018-May-17 12:30N 48°23' W 004°27'0 0.0
2018-May-17 12:00N 48°23' W 004°27'0 0.0
2018-May-17 11:30N 48°23' W 004°27'0 0.0
2018-May-17 11:00N 48°23' W 004°27'0 0.0
2018-May-17 10:30N 48°23' W 004°27'0 0.0
2018-May-17 10:00N 48°23' W 004°27'0 0.0
2018-May-17 09:30N 48°23' W 004°27'0 0.0
2018-May-17 09:00N 48°23' W 004°27'0 0.0
2018-May-17 08:30N 48°23' W 004°27'0 0.0
2018-May-17 08:00N 48°23' W 004°27'0 0.0
2018-May-17 07:30N 48°23' W 004°27'0 0.0
2018-May-17 07:00N 48°23' W 004°27'0 0.0
2018-May-17 06:30N 48°23' W 004°27'0 0.0
2018-May-17 06:00N 48°23' W 004°27'0 0.8
2018-May-17 05:31N 48°23' W 004°28'4 8.7
2018-May-17 05:00N 48°21' W 004°33'611.3
2018-May-17 04:30N 48°18' W 004°41'510.1
2018-May-17 04:00N 48°16' W 004°48'612.3
2018-May-17 03:30N 48°14' W 004°56'713.8
2018-May-17 03:00N 48°11' W 005°06'714.5
2018-May-17 02:30N 48°09' W 005°16'3714.7
2018-May-16 23:58N 47°50' W 006°05'6212.5
2018-May-16 19:00N 47°18' W 007°24'5814.4 010 / 271021.4 2.2 13.013.012.9
2018-May-16 15:00N 46°48' W 008°36'2713.7 020 / 311022.2 2.2 14.013.113.0
2018-May-16 13:00N 46°36' W 009°12'1010.2 020 / 311023.3 5.4 14.013.113.0
2018-May-16 12:00N 46°30' W 009°24'11414.2 020 / 301023.6 5.4 14.013.113.0
2018-May-16 04:00N 45°36' W 011°48'10513.1 010 / 341024.1 2.2 12.012.013.0
2018-May-15 20:00N 44°48' W 014°00'4515.1 360 / 201026.2 5.4 15.515.514.5
2018-May-15 17:00N 44°24' W 014°54'4314.2 350 / 121026.4 1.1 14.514.514.6
2018-May-15 14:00N 44°06' W 015°48'1414.3 320 / 101027.2 5.4 18.017.214.0
2018-May-15 13:00N 44°00' W 016°06'1414.3 320 / 131027.7 5.4 18.017.214.0
2018-May-15 12:00N 43°54' W 016°24'12115.1 310 / 151028.2 5.4 18.017.214.0
2018-May-15 04:00N 42°54' W 018°48'12215.3 300 / 101028.210.8 14.014.014.6
2018-May-14 20:00N 41°54' W 021°12'4414.7 230 / 61029.910.8 16.015.115.5
2018-May-14 17:00N 41°36' W 022°06'1110.8 200 / 91029.910.8 17.014.416.0
2018-May-14 16:00N 41°30' W 022°18'2625.5 200 / 91029.910.8 17.014.416.0
2018-May-14 15:00N 41°18' W 022°48'1110.8 200 / 91029.910.8 18.014.616.0
2018-May-14 14:00N 41°12' W 023°00'   210 / 81029.910.8 18.013.616.0

Dump ship's entire track history